createdAt,value
2024-02-02T00:01:38.609Z,23.42
2024-02-02T00:04:06.427Z,19.88
2024-02-02T00:06:33.978Z,18.30
2024-02-02T00:09:01.503Z,17.95
2024-02-02T00:11:32.125Z,25.05
2024-02-02T00:13:59.694Z,17.65
2024-02-02T00:16:27.153Z,13.00
2024-02-02T00:18:54.752Z,25.27
2024-02-02T00:21:22.469Z,29.63
2024-02-02T00:23:49.977Z,31.10
2024-02-02T00:26:17.395Z,17.58
2024-02-02T00:28:46.146Z,17.77
2024-02-02T00:31:13.593Z,21.73
2024-02-02T00:33:41.182Z,21.38
2024-02-02T00:36:08.877Z,22.00
2024-02-02T00:38:36.330Z,19.50
2024-02-02T00:41:03.781Z,21.52
2024-02-02T00:43:31.191Z,22.70
2024-02-02T00:45:59.955Z,18.60
2024-02-02T00:48:27.513Z,23.08
2024-02-02T00:50:55.091Z,21.20
2024-02-02T00:53:22.541Z,12.73
2024-02-02T00:55:49.966Z,19.13
2024-02-02T00:58:17.634Z,14.25
2024-02-02T01:00:45.198Z,15.75
2024-02-02T01:03:14.100Z,14.32
2024-02-02T01:05:41.562Z,27.80
2024-02-02T01:08:08.989Z,18.55
2024-02-02T01:10:36.553Z,24.98
2024-02-02T01:13:04.200Z,31.08
2024-02-02T01:15:32.028Z,20.92
2024-02-02T01:18:00.034Z,20.45
2024-02-02T01:20:29.036Z,16.33
2024-02-02T01:22:56.454Z,23.05
2024-02-02T01:25:23.908Z,23.13
2024-02-02T01:27:51.286Z,20.05
2024-02-02T01:30:18.833Z,20.58
2024-02-02T01:32:46.278Z,17.20
2024-02-02T01:35:13.766Z,14.75
2024-02-02T01:37:42.531Z,20.90
2024-02-02T01:40:10.353Z,18.45
2024-02-02T01:42:37.922Z,23.70
2024-02-02T01:45:06.024Z,19.67
2024-02-02T01:47:33.550Z,20.25
2024-02-02T01:50:01.118Z,17.98
2024-02-02T01:52:28.916Z,25.60
2024-02-02T01:54:57.943Z,16.00
2024-02-02T01:57:25.575Z,14.85
2024-02-02T01:59:53.156Z,18.05
2024-02-02T02:02:20.557Z,21.60
2024-02-02T02:04:48.016Z,21.73
2024-02-02T02:07:15.658Z,14.70
2024-02-02T02:09:43.900Z,20.13
2024-02-02T02:12:13.255Z,16.92
2024-02-02T02:14:40.769Z,20.77
2024-02-02T02:17:09.112Z,25.60
2024-02-02T02:19:37.422Z,17.73
2024-02-02T02:22:06.428Z,19.30
2024-02-02T02:24:33.922Z,20.58
2024-02-02T02:27:01.414Z,23.83
2024-02-02T02:29:28.842Z,14.85
2024-02-02T02:31:56.623Z,16.48
2024-02-02T02:34:25.423Z,24.80
2024-02-02T02:36:53.138Z,23.20
2024-02-02T02:39:21.953Z,22.50
2024-02-02T02:41:49.452Z,18.08
2024-02-02T02:44:17.096Z,19.85
2024-02-02T02:46:44.818Z,17.65
2024-02-02T02:49:12.478Z,22.65
2024-02-02T02:51:40.182Z,17.45
2024-02-02T02:54:07.672Z,22.50
2024-02-02T02:56:36.492Z,17.90
2024-02-02T02:59:03.908Z,19.90
2024-02-02T03:01:31.425Z,19.38
2024-02-02T03:03:58.892Z,27.08
2024-02-02T03:06:26.363Z,29.98
2024-02-02T03:08:53.871Z,18.42
2024-02-02T03:11:21.412Z,24.80
2024-02-02T03:13:50.320Z,21.90
2024-02-02T03:16:17.884Z,18.30
2024-02-02T03:18:45.880Z,28.77
2024-02-02T03:21:13.571Z,28.23
2024-02-02T03:23:40.988Z,24.77
2024-02-02T03:26:08.554Z,30.63
2024-02-02T03:28:35.948Z,27.27
2024-02-02T03:31:04.798Z,16.42
2024-02-02T03:33:32.410Z,18.95
2024-02-02T03:35:59.921Z,24.23
2024-02-02T03:38:27.353Z,21.55
2024-02-02T03:40:54.776Z,22.08
2024-02-02T03:43:22.203Z,16.27
2024-02-02T03:45:49.616Z,20.63
2024-02-02T03:48:18.603Z,19.55
2024-02-02T03:50:46.081Z,18.63
2024-02-02T03:53:13.544Z,22.75
2024-02-02T03:55:41.371Z,18.20
2024-02-02T03:58:08.824Z,14.20
2024-02-02T04:00:36.314Z,17.30
2024-02-02T04:03:04.110Z,20.75
2024-02-02T04:05:33.001Z,23.15
2024-02-02T04:08:00.441Z,22.88
2024-02-02T04:10:28.283Z,24.33
2024-02-02T04:12:55.801Z,20.38
2024-02-02T04:15:23.247Z,18.00
2024-02-02T04:17:50.767Z,21.02
2024-02-02T04:20:18.285Z,15.77
2024-02-02T04:22:47.098Z,18.83
2024-02-02T04:25:14.805Z,29.42
2024-02-02T04:27:42.324Z,25.83
2024-02-02T04:30:10.587Z,17.35
2024-02-02T04:32:38.228Z,27.20
2024-02-02T04:35:06.163Z,20.00
2024-02-02T04:37:33.639Z,18.42
2024-02-02T04:40:02.417Z,18.15
2024-02-02T04:42:29.939Z,13.77
2024-02-02T04:44:57.432Z,20.75
2024-02-02T04:47:24.909Z,21.02
2024-02-02T04:49:52.443Z,22.48
2024-02-02T04:52:19.923Z,21.38
2024-02-02T04:54:48.656Z,24.20
2024-02-02T04:57:17.511Z,21.95
2024-02-02T04:59:44.944Z,33.75
2024-02-02T05:02:12.449Z,19.92
2024-02-02T05:04:41.900Z,26.60
2024-02-02T05:07:09.569Z,25.67
2024-02-02T05:09:37.131Z,28.20
2024-02-02T05:12:04.883Z,19.90
2024-02-02T05:14:33.724Z,24.33
2024-02-02T05:17:01.215Z,27.00
2024-02-02T05:19:28.751Z,20.35
2024-02-02T05:21:56.297Z,22.52
2024-02-02T05:24:37.154Z,23.45
2024-02-02T05:27:12.048Z,25.92
2024-02-02T05:29:40.915Z,16.23
2024-02-02T05:32:08.674Z,23.27
2024-02-02T05:34:36.235Z,20.77
2024-02-02T05:37:03.944Z,23.67
2024-02-02T05:39:31.403Z,21.17
2024-02-02T05:41:59.243Z,17.80
2024-02-02T05:44:26.815Z,19.80
2024-02-02T05:46:55.692Z,24.27
2024-02-02T05:49:23.742Z,28.25
2024-02-02T05:51:51.451Z,22.00
2024-02-02T05:54:18.960Z,13.15
2024-02-02T05:56:46.417Z,16.33
2024-02-02T05:59:13.844Z,19.48
2024-02-02T06:01:41.276Z,14.88
2024-02-02T06:04:10.125Z,15.07
2024-02-02T06:06:37.670Z,16.50
2024-02-02T06:09:06.303Z,23.70
2024-02-02T06:11:33.799Z,10.13
2024-02-02T06:14:01.258Z,19.38
2024-02-02T06:16:29.380Z,19.20
2024-02-02T06:18:57.042Z,22.88
2024-02-02T06:21:26.134Z,14.57
2024-02-02T06:23:53.659Z,14.05
2024-02-02T06:26:21.217Z,18.77
2024-02-02T06:28:48.713Z,12.48
2024-02-02T06:31:16.148Z,22.42
2024-02-02T06:33:43.744Z,14.73
2024-02-02T06:36:11.293Z,17.98
2024-02-02T06:38:40.233Z,17.77
2024-02-02T06:41:11.590Z,14.32
2024-02-02T06:43:39.260Z,14.48
2024-02-02T06:46:06.713Z,18.65
2024-02-02T06:48:34.344Z,16.10
2024-02-02T06:51:04.946Z,18.10
2024-02-02T06:53:34.314Z,14.73
2024-02-02T06:56:03.225Z,10.10
2024-02-02T06:58:38.972Z,14.35
2024-02-02T07:01:06.551Z,12.73
2024-02-02T07:03:36.933Z,17.77
2024-02-02T07:06:05.647Z,17.50
2024-02-02T07:08:33.246Z,16.20
2024-02-02T07:11:05.250Z,20.45
2024-02-02T07:13:35.147Z,15.02
2024-02-02T07:16:02.637Z,20.40
2024-02-02T07:18:35.518Z,13.27
2024-02-02T07:21:06.357Z,11.20
2024-02-02T07:23:34.564Z,12.48
2024-02-02T07:26:02.430Z,14.60
2024-02-02T07:28:37.062Z,10.65
2024-02-02T07:31:08.797Z,11.95
2024-02-02T07:33:37.576Z,9.75
2024-02-02T07:36:05.718Z,13.48
2024-02-02T07:38:42.924Z,14.20
2024-02-02T07:41:10.723Z,15.40
2024-02-02T07:43:38.254Z,10.20
2024-02-02T07:46:11.174Z,11.90
2024-02-02T07:48:41.196Z,13.82
2024-02-02T07:51:09.063Z,12.23
2024-02-02T07:53:36.636Z,12.00
2024-02-02T07:56:04.436Z,13.07
2024-02-02T07:58:31.972Z,10.00
2024-02-02T08:01:00.006Z,13.45
2024-02-02T08:03:29.098Z,16.08
2024-02-02T08:05:56.716Z,11.80
2024-02-02T08:08:24.181Z,11.68
2024-02-02T08:10:51.698Z,15.50
2024-02-02T08:13:19.631Z,12.32
2024-02-02T08:15:47.126Z,13.73
2024-02-02T08:18:14.725Z,18.50
2024-02-02T08:20:43.643Z,13.07
2024-02-02T08:23:11.043Z,13.13
2024-02-02T08:25:38.481Z,9.25
2024-02-02T08:28:06.328Z,10.10
2024-02-02T08:30:33.924Z,11.75
2024-02-02T08:33:01.470Z,8.13
2024-02-02T08:35:29.681Z,11.13
2024-02-02T08:37:59.862Z,8.18
2024-02-02T08:40:28.377Z,11.35
2024-02-02T08:42:55.850Z,17.00
2024-02-02T08:45:44.381Z,13.63
2024-02-02T08:48:23.726Z,10.07
2024-02-02T08:50:51.799Z,9.77
2024-02-02T08:53:20.714Z,13.95
2024-02-02T08:55:50.370Z,9.82
2024-02-02T08:58:20.314Z,14.45
2024-02-02T09:00:50.404Z,7.80
2024-02-02T09:03:25.165Z,8.93
2024-02-02T09:08:33.013Z,17.30
2024-02-02T09:11:22.440Z,10.15
2024-02-02T09:13:50.409Z,11.52
2024-02-02T09:16:18.327Z,5.63
2024-02-02T09:18:46.795Z,12.52
2024-02-02T09:21:15.982Z,15.05
2024-02-02T09:23:49.875Z,12.05
2024-02-02T09:26:18.058Z,12.50
2024-02-02T09:28:46.868Z,11.25
2024-02-02T09:31:21.784Z,17.27
2024-02-02T09:33:51.429Z,8.02
2024-02-02T09:36:19.481Z,9.65
2024-02-02T09:38:56.437Z,11.40
2024-02-02T09:41:31.992Z,11.65
2024-02-02T09:44:01.635Z,14.10
2024-02-02T09:46:30.525Z,9.90
2024-02-02T09:49:02.595Z,13.68
2024-02-02T09:51:36.356Z,12.52
2024-02-02T09:54:07.629Z,9.65
2024-02-02T09:56:41.649Z,9.48
2024-02-02T09:59:13.397Z,15.85
2024-02-02T10:01:51.480Z,12.18
2024-02-02T10:04:25.643Z,10.95
2024-02-02T10:06:58.842Z,9.43
2024-02-02T10:09:38.021Z,13.20
2024-02-02T10:12:12.923Z,15.70
2024-02-02T10:14:50.293Z,13.07
2024-02-02T10:17:23.583Z,11.70
2024-02-02T10:20:08.672Z,16.83
2024-02-02T10:25:17.299Z,10.88
2024-02-02T10:27:55.594Z,17.45
2024-02-02T10:30:28.922Z,11.55
2024-02-02T10:33:04.530Z,14.60
2024-02-02T10:35:34.749Z,12.75
2024-02-02T10:38:05.631Z,14.63
2024-02-02T10:40:39.173Z,9.15
2024-02-02T10:43:12.485Z,8.43
2024-02-02T10:45:43.105Z,8.65
2024-02-02T10:48:21.020Z,16.95
2024-02-02T10:50:50.909Z,10.70
2024-02-02T10:53:23.118Z,15.00
2024-02-02T10:55:58.560Z,8.50
2024-02-02T10:58:34.268Z,12.55
2024-02-02T11:01:05.034Z,10.57
2024-02-02T11:03:33.246Z,7.90
2024-02-02T11:06:07.901Z,6.53
2024-02-02T11:08:40.313Z,22.05
2024-02-02T11:11:13.095Z,13.73
2024-02-02T11:13:45.462Z,11.27
2024-02-02T11:16:19.765Z,16.13
2024-02-02T11:18:52.424Z,8.75
2024-02-02T11:21:27.338Z,14.80
2024-02-02T11:23:59.970Z,11.32
2024-02-02T11:26:33.513Z,10.85
2024-02-02T11:29:07.716Z,7.65
2024-02-02T11:31:36.277Z,11.45
2024-02-02T11:34:08.856Z,12.20
2024-02-02T11:36:40.483Z,11.07
2024-02-02T11:39:15.762Z,12.77
2024-02-02T11:41:45.205Z,7.15
2024-02-02T11:44:13.559Z,11.88
2024-02-02T11:46:41.034Z,12.48
2024-02-02T11:49:10.328Z,11.82
2024-02-02T11:51:39.232Z,11.52
2024-02-02T11:54:10.474Z,13.57
2024-02-02T11:56:40.688Z,11.77
2024-02-02T11:59:10.909Z,11.15
2024-02-02T12:01:42.414Z,15.27
2024-02-02T12:04:18.346Z,10.75
2024-02-02T12:06:51.128Z,9.38
2024-02-02T12:09:26.701Z,13.20
2024-02-02T12:11:55.743Z,7.43
2024-02-02T12:14:27.157Z,10.40
2024-02-02T12:16:54.773Z,12.75
2024-02-02T12:19:22.471Z,10.77
2024-02-02T12:21:50.037Z,8.82
2024-02-02T12:24:17.992Z,5.30
2024-02-02T12:26:49.242Z,8.05
2024-02-02T12:29:17.030Z,11.52
2024-02-02T12:31:45.843Z,10.00
2024-02-02T12:34:13.839Z,12.10
2024-02-02T12:36:41.537Z,14.63
2024-02-02T12:39:09.168Z,12.13
2024-02-02T12:41:36.969Z,10.38
2024-02-02T12:44:05.815Z,15.52
2024-02-02T12:46:42.850Z,13.27
2024-02-02T12:49:11.774Z,11.75
2024-02-02T12:51:39.502Z,13.38
2024-02-02T12:54:07.782Z,6.57
2024-02-02T12:56:35.267Z,16.50
2024-02-02T12:59:05.905Z,13.30
2024-02-02T13:01:34.498Z,13.48
2024-02-02T13:04:02.188Z,14.18
2024-02-02T13:06:33.187Z,20.38
2024-02-02T13:09:18.946Z,17.88
2024-02-02T13:11:47.891Z,13.80
2024-02-02T13:14:15.799Z,15.05
2024-02-02T13:16:43.632Z,9.95
2024-02-02T13:19:26.008Z,16.13
2024-02-02T13:22:01.912Z,13.60
2024-02-02T13:24:29.437Z,14.27
2024-02-02T13:27:04.438Z,11.02
2024-02-02T13:29:34.710Z,7.40
2024-02-02T13:32:04.494Z,15.63
2024-02-02T13:34:32.821Z,10.27
2024-02-02T13:37:06.945Z,12.15
2024-02-02T13:39:35.096Z,7.43
2024-02-02T13:42:03.232Z,9.82
2024-02-02T13:44:32.001Z,7.93
2024-02-02T13:47:00.368Z,9.93
2024-02-02T13:49:32.156Z,8.45
2024-02-02T13:52:06.646Z,9.77
2024-02-02T13:54:34.176Z,11.07
2024-02-02T13:57:02.042Z,9.85
2024-02-02T13:59:29.793Z,11.73
2024-02-02T14:02:05.402Z,11.15
2024-02-02T14:04:32.875Z,10.30
2024-02-02T14:07:00.504Z,15.10
2024-02-02T14:09:29.534Z,13.98
2024-02-02T14:12:03.499Z,10.65
2024-02-02T14:14:31.081Z,12.80
2024-02-02T14:17:02.089Z,9.15
2024-02-02T14:19:29.586Z,10.20
2024-02-02T14:22:04.696Z,7.13
2024-02-02T14:24:33.677Z,10.88
2024-02-02T14:27:02.683Z,12.93
2024-02-02T14:29:40.125Z,13.85
2024-02-02T14:32:08.045Z,10.38
2024-02-02T14:34:35.620Z,9.73
2024-02-02T14:37:04.374Z,9.15
2024-02-02T14:39:33.344Z,13.25
2024-02-02T14:42:01.260Z,11.82
2024-02-02T14:44:29.905Z,13.07
2024-02-02T14:46:58.219Z,11.93
2024-02-02T14:49:26.885Z,10.02
2024-02-02T14:51:54.952Z,10.18
2024-02-02T14:54:22.587Z,10.07
2024-02-02T14:56:51.601Z,10.23
2024-02-02T14:59:24.425Z,8.80
2024-02-02T15:01:52.133Z,10.93
2024-02-02T15:04:19.876Z,10.98
2024-02-02T15:06:47.520Z,10.48
2024-02-02T15:09:15.711Z,12.30
2024-02-02T15:11:43.638Z,16.63
2024-02-02T15:14:12.499Z,14.70
2024-02-02T15:16:39.970Z,10.02
2024-02-02T15:19:07.496Z,15.50
2024-02-02T15:21:35.210Z,15.57
2024-02-02T15:24:02.866Z,11.80
2024-02-02T15:26:30.390Z,12.60
2024-02-02T15:28:57.920Z,16.73
2024-02-02T15:31:26.740Z,9.05
2024-02-02T15:33:54.345Z,13.70
2024-02-02T15:36:21.861Z,16.50
2024-02-02T15:39:06.471Z,19.05
2024-02-02T15:41:36.762Z,16.58
2024-02-02T15:44:04.210Z,16.85
2024-02-02T15:46:33.256Z,18.55
2024-02-02T15:49:00.920Z,15.18
2024-02-02T15:51:31.639Z,14.35
2024-02-02T15:53:59.824Z,16.55
2024-02-02T15:56:27.320Z,16.58
2024-02-02T15:58:54.818Z,12.77
2024-02-02T16:01:22.419Z,21.70
2024-02-02T16:03:51.446Z,17.67
2024-02-02T16:06:21.228Z,16.42
2024-02-02T16:08:48.770Z,12.07
2024-02-02T16:11:16.900Z,12.13
2024-02-02T16:13:44.624Z,15.38
2024-02-02T16:16:12.591Z,15.82
2024-02-02T16:18:40.208Z,12.77
2024-02-02T16:21:09.721Z,17.63
2024-02-02T16:23:37.629Z,15.23
2024-02-02T16:26:05.446Z,14.40
2024-02-02T16:28:33.379Z,15.07
2024-02-02T16:31:00.874Z,16.60
2024-02-02T16:33:28.466Z,17.42
2024-02-02T16:35:55.949Z,15.05
2024-02-02T16:38:24.764Z,17.13
2024-02-02T16:40:52.226Z,20.08
2024-02-02T16:43:19.765Z,17.13
2024-02-02T16:45:47.921Z,13.75
2024-02-02T16:48:17.316Z,18.40
2024-02-02T16:50:44.815Z,17.13
2024-02-02T16:53:12.257Z,14.93
2024-02-02T16:55:41.461Z,15.57
2024-02-02T16:58:09.342Z,10.18
2024-02-02T17:00:37.448Z,14.02
2024-02-02T17:03:05.109Z,13.73
2024-02-02T17:05:32.599Z,14.30
2024-02-02T17:08:00.235Z,12.60
2024-02-02T17:10:27.761Z,12.27
2024-02-02T17:12:56.666Z,12.98
2024-02-02T17:15:24.969Z,16.08
2024-02-02T17:17:52.588Z,15.50
2024-02-02T17:20:22.108Z,12.50
2024-02-02T17:22:49.559Z,13.18
2024-02-02T17:25:17.097Z,12.95
2024-02-02T17:27:44.559Z,17.52
2024-02-02T17:30:15.664Z,13.70
2024-02-02T17:32:43.309Z,12.45
2024-02-02T17:35:10.975Z,13.52
2024-02-02T17:37:39.579Z,13.90
2024-02-02T17:40:08.381Z,15.30
2024-02-02T17:42:36.524Z,12.05
2024-02-02T17:45:04.559Z,15.25
2024-02-02T17:47:33.407Z,14.93
2024-02-02T17:50:03.422Z,10.52
2024-02-02T17:52:31.811Z,13.90
2024-02-02T17:54:59.640Z,10.68
2024-02-02T17:57:27.128Z,13.60
2024-02-02T17:59:54.874Z,14.15
2024-02-02T18:02:22.338Z,13.05
2024-02-02T18:04:51.151Z,20.25
2024-02-02T18:07:23.385Z,15.50
2024-02-02T18:09:52.559Z,12.43
2024-02-02T18:12:20.051Z,10.30
2024-02-02T18:14:47.508Z,12.38
2024-02-02T18:17:17.942Z,12.27
2024-02-02T18:19:45.555Z,15.93
2024-02-02T18:22:14.513Z,14.85
2024-02-02T18:24:42.013Z,11.73
2024-02-02T18:27:09.473Z,12.73
2024-02-02T18:29:37.550Z,10.50
2024-02-02T18:32:05.425Z,11.48
2024-02-02T18:34:33.016Z,10.27
2024-02-02T18:37:00.670Z,10.40
2024-02-02T18:39:30.013Z,11.20
2024-02-02T18:41:57.513Z,10.95
2024-02-02T18:44:24.966Z,9.70
2024-02-02T18:46:52.442Z,12.15
2024-02-02T18:49:19.917Z,9.95
2024-02-02T18:51:48.043Z,9.35
2024-02-02T18:54:15.618Z,10.43
2024-02-02T18:56:44.469Z,15.27
2024-02-02T18:59:11.986Z,11.30
2024-02-02T19:01:39.509Z,10.65
2024-02-02T19:04:08.629Z,13.38
2024-02-02T19:06:38.196Z,10.55
2024-02-02T19:09:05.739Z,11.85
2024-02-02T19:11:33.249Z,11.20
2024-02-02T19:14:02.097Z,23.23
2024-02-02T19:16:29.651Z,10.48
2024-02-02T19:18:57.360Z,11.98
2024-02-02T19:21:26.289Z,11.27
2024-02-02T19:23:53.964Z,8.80
2024-02-02T19:26:22.830Z,9.75
2024-02-02T19:28:50.725Z,9.23
2024-02-02T19:31:23.636Z,11.45
2024-02-02T19:33:51.604Z,8.35
2024-02-02T19:36:19.695Z,12.00
2024-02-02T19:38:47.312Z,12.68
2024-02-02T19:41:18.698Z,9.23
2024-02-02T19:43:46.263Z,8.23
2024-02-02T19:46:19.825Z,10.48
2024-02-02T19:48:49.484Z,9.90
2024-02-02T19:51:17.326Z,9.60
2024-02-02T19:53:44.849Z,12.55
2024-02-02T19:56:12.701Z,12.40
2024-02-02T19:58:40.633Z,11.80
2024-02-02T20:01:12.814Z,9.93
2024-02-02T20:03:40.395Z,13.75
2024-02-02T20:06:09.714Z,16.70
2024-02-02T20:08:39.278Z,12.32
2024-02-02T20:11:06.834Z,12.23
2024-02-02T20:13:34.441Z,12.07
2024-02-02T20:16:05.054Z,13.00
2024-02-02T20:18:32.571Z,16.50
2024-02-02T20:21:00.076Z,12.13
2024-02-02T20:23:28.913Z,12.32
2024-02-02T20:25:56.363Z,13.07
2024-02-02T20:28:23.937Z,11.48
2024-02-02T20:30:51.490Z,14.98
2024-02-02T20:33:19.087Z,11.32
2024-02-02T20:35:46.768Z,9.48
2024-02-02T20:38:14.818Z,12.88
2024-02-02T20:40:43.632Z,12.82
2024-02-02T20:43:11.191Z,10.73
2024-02-02T20:45:38.787Z,12.00
2024-02-02T20:48:06.708Z,12.25
2024-02-02T20:50:34.370Z,14.27
2024-02-02T20:53:01.792Z,16.52
2024-02-02T20:55:29.306Z,11.95
2024-02-02T20:58:02.013Z,12.73
2024-02-02T21:00:30.811Z,10.65
2024-02-02T21:02:58.514Z,15.80
2024-02-02T21:05:26.106Z,14.27
2024-02-02T21:07:54.160Z,17.10
2024-02-02T21:10:21.807Z,13.45
2024-02-02T21:12:49.643Z,14.23
2024-02-02T21:15:18.741Z,14.65
2024-02-02T21:17:47.968Z,13.70
2024-02-02T21:20:15.736Z,14.63
2024-02-02T21:22:43.364Z,14.10
2024-02-02T21:25:10.972Z,17.55
2024-02-02T21:27:38.453Z,17.48
2024-02-02T21:30:06.761Z,16.35
2024-02-02T21:32:35.674Z,18.25
2024-02-02T21:35:03.214Z,17.33
2024-02-02T21:37:30.678Z,14.23
2024-02-02T21:39:58.128Z,13.20
2024-02-02T21:42:25.660Z,14.02
2024-02-02T21:44:53.852Z,17.83
2024-02-02T21:47:21.354Z,18.40
2024-02-02T21:49:50.303Z,23.13
2024-02-02T21:52:18.597Z,16.65
2024-02-02T21:54:46.071Z,18.35
2024-02-02T21:57:14.359Z,19.20
2024-02-02T21:59:41.850Z,16.95
2024-02-02T22:02:09.264Z,18.50
2024-02-02T22:04:36.770Z,20.30
2024-02-02T22:07:05.919Z,17.35
2024-02-02T22:09:33.600Z,14.32
2024-02-02T22:12:01.079Z,17.20
2024-02-02T22:14:29.114Z,19.00
2024-02-02T22:16:56.554Z,20.90
2024-02-02T22:19:24.028Z,11.85
2024-02-02T22:21:51.654Z,21.35
2024-02-02T22:24:21.859Z,20.10
2024-02-02T22:26:49.329Z,23.02
2024-02-02T22:29:16.727Z,23.58
2024-02-02T22:31:44.178Z,22.15
2024-02-02T22:34:11.719Z,19.15
2024-02-02T22:36:39.275Z,20.98
2024-02-02T22:39:06.795Z,20.85
2024-02-02T22:41:35.997Z,17.88
2024-02-02T22:44:03.535Z,19.98
2024-02-02T22:46:31.311Z,22.63
2024-02-02T22:48:59.184Z,20.80
2024-02-02T22:51:27.054Z,21.77
2024-02-02T22:53:54.490Z,28.27
2024-02-02T22:56:21.918Z,21.90
2024-02-02T22:58:50.686Z,22.40
2024-02-02T23:01:18.539Z,23.60
2024-02-02T23:03:46.222Z,22.77
2024-02-02T23:06:13.789Z,27.58
2024-02-02T23:08:41.935Z,22.17
2024-02-02T23:11:09.504Z,19.92
2024-02-02T23:13:37.016Z,24.13
2024-02-02T23:16:06.193Z,20.83
2024-02-02T23:18:33.832Z,19.73
2024-02-02T23:21:01.476Z,22.63
2024-02-02T23:23:29.863Z,22.88
2024-02-02T23:25:57.289Z,22.73
2024-02-02T23:28:24.737Z,19.50
2024-02-02T23:30:52.177Z,20.83
2024-02-02T23:33:21.012Z,18.65
2024-02-02T23:35:48.473Z,21.27
2024-02-02T23:38:15.952Z,21.95
2024-02-02T23:40:43.591Z,21.27
2024-02-02T23:43:11.935Z,19.27
2024-02-02T23:45:39.387Z,20.95
2024-02-02T23:48:07.168Z,17.52
2024-02-02T23:50:36.574Z,19.15
2024-02-02T23:53:04.626Z,17.98
2024-02-02T23:55:32.063Z,18.00
2024-02-02T23:57:59.518Z,15.73
